Aviation Digital Data Service (ADDS)

Output produced by METARs form (1224 UTC 26 March 2019)
found at http://www.aviationweather.gov/metar/data/
 
METAR text: YSSY 261200Z 14010KT CAVOK 20/10 Q1021
Conditions at: YSSY (SYDNEY INTL AIRP, AU) observed 1200 UTC 26 March 2019
Temperature: 20.0°C (68°F)
Dewpoint: 10.0°C (50°F) [RH = 53%]
Pressure (altimeter): 30.15 inches Hg (1021.0 mb)
Winds: from the SE (140 degrees) at 12 MPH (10 knots; 5.1 m/s)
Visibility: 6 or more miles (10+ km)
Ceiling: ceiling and visibility are OK
Clouds: unknown
Weather: no significant weather observed at this time

METAR text: YSSY 261130Z 14012KT CAVOK 20/10 Q1021 NOSIG
Conditions at: YSSY (SYDNEY INTL AIRP, AU) observed 1130 UTC 26 March 2019
Temperature: 20.0°C (68°F)
Dewpoint: 10.0°C (50°F) [RH = 53%]
Pressure (altimeter): 30.15 inches Hg (1021.0 mb)
Winds: from the SE (140 degrees) at 14 MPH (12 knots; 6.2 m/s)
Visibility: 6 or more miles (10+ km)
Ceiling: ceiling and visibility are OK
Clouds: unknown
Weather: no significant weather observed at this time

METAR text: YSSY 261100Z 13012KT CAVOK 20/10 Q1021
Conditions at: YSSY (SYDNEY INTL AIRP, AU) observed 1100 UTC 26 March 2019
Temperature: 20.0°C (68°F)
Dewpoint: 10.0°C (50°F) [RH = 53%]
Pressure (altimeter): 30.15 inches Hg (1021.0 mb)
Winds: from the SE (130 degrees) at 14 MPH (12 knots; 6.2 m/s)
Visibility: 6 or more miles (10+ km)
Ceiling: ceiling and visibility are OK
Clouds: unknown
Weather: no significant weather observed at this time

METAR text: YSSY 261030Z 13013KT CAVOK 21/10 Q1021
Conditions at: YSSY (SYDNEY INTL AIRP, AU) observed 1030 UTC 26 March 2019
Temperature: 21.0°C (70°F)
Dewpoint: 10.0°C (50°F) [RH = 49%]
Pressure (altimeter): 30.15 inches Hg (1021.0 mb)
Winds: from the SE (130 degrees) at 15 MPH (13 knots; 6.7 m/s)
Visibility: 6 or more miles (10+ km)
Ceiling: ceiling and visibility are OK
Clouds: unknown
Weather: no significant weather observed at this time

METAR text: YSSY 261000Z 14015KT CAVOK 21/11 Q1020
Conditions at: YSSY (SYDNEY INTL AIRP, AU) observed 1000 UTC 26 March 2019
Temperature: 21.0°C (70°F)
Dewpoint: 11.0°C (52°F) [RH = 53%]
Pressure (altimeter): 30.12 inches Hg (1020.0 mb)
Winds: from the SE (140 degrees) at 17 MPH (15 knots; 7.7 m/s)
Visibility: 6 or more miles (10+ km)
Ceiling: ceiling and visibility are OK
Clouds: unknown
Weather: no significant weather observed at this time

METAR text: YSSY 260930Z 14013KT CAVOK 21/10 Q1019 NOSIG
Conditions at: YSSY (SYDNEY INTL AIRP, AU) observed 0930 UTC 26 March 2019
Temperature: 21.0°C (70°F)
Dewpoint: 10.0°C (50°F) [RH = 49%]
Pressure (altimeter): 30.09 inches Hg (1019.0 mb)
Winds: from the SE (140 degrees) at 15 MPH (13 knots; 6.7 m/s)
Visibility: 6 or more miles (10+ km)
Ceiling: ceiling and visibility are OK
Clouds: unknown
Weather: no significant weather observed at this time

METAR text: YSSY 260900Z 14014KT CAVOK 21/11 Q1019
Conditions at: YSSY (SYDNEY INTL AIRP, AU) observed 0900 UTC 26 March 2019
Temperature: 21.0°C (70°F)
Dewpoint: 11.0°C (52°F) [RH = 53%]
Pressure (altimeter): 30.09 inches Hg (1019.0 mb)
Winds: from the SE (140 degrees) at 16 MPH (14 knots; 7.2 m/s)
Visibility: 6 or more miles (10+ km)
Ceiling: ceiling and visibility are OK
Clouds: unknown
Weather: no significant weather observed at this time

METAR text: YSSY 260830Z 15014KT CAVOK 21/10 Q1018 NOSIG
Conditions at: YSSY (SYDNEY INTL AIRP, AU) observed 0830 UTC 26 March 2019
Temperature: 21.0°C (70°F)
Dewpoint: 10.0°C (50°F) [RH = 49%]
Pressure (altimeter): 30.06 inches Hg (1018.0 mb)
Winds: from the SSE (150 degrees) at 16 MPH (14 knots; 7.2 m/s)
Visibility: 6 or more miles (10+ km)
Ceiling: ceiling and visibility are OK
Clouds: unknown
Weather: no significant weather observed at this time

METAR text: YSSY 260800Z 14013KT CAVOK 21/11 Q1018
Conditions at: YSSY (SYDNEY INTL AIRP, AU) observed 0800 UTC 26 March 2019
Temperature: 21.0°C (70°F)
Dewpoint: 11.0°C (52°F) [RH = 53%]
Pressure (altimeter): 30.06 inches Hg (1018.0 mb)
Winds: from the SE (140 degrees) at 15 MPH (13 knots; 6.7 m/s)
Visibility: 6 or more miles (10+ km)
Ceiling: ceiling and visibility are OK
Clouds: unknown
Weather: no significant weather observed at this time

METAR text: YSSY 260730Z 15012KT CAVOK 22/08 Q1017 NOSIG
Conditions at: YSSY (SYDNEY INTL AIRP, AU) observed 0730 UTC 26 March 2019
Temperature: 22.0°C (72°F)
Dewpoint: 8.0°C (46°F) [RH = 41%]
Pressure (altimeter): 30.03 inches Hg (1017.0 mb)
Winds: from the SSE (150 degrees) at 14 MPH (12 knots; 6.2 m/s)
Visibility: 6 or more miles (10+ km)
Ceiling: ceiling and visibility are OK
Clouds: unknown
Weather: no significant weather observed at this time

METAR text: YSSY 260700Z 14013KT CAVOK 22/10 Q1016
Conditions at: YSSY (SYDNEY INTL AIRP, AU) observed 0700 UTC 26 March 2019
Temperature: 22.0°C (72°F)
Dewpoint: 10.0°C (50°F) [RH = 46%]
Pressure (altimeter): 30.00 inches Hg (1016.0 mb)
Winds: from the SE (140 degrees) at 15 MPH (13 knots; 6.7 m/s)
Visibility: 6 or more miles (10+ km)
Ceiling: ceiling and visibility are OK
Clouds: unknown
Weather: no significant weather observed at this time

METAR text: YSSY 260630Z 15015KT CAVOK 23/09 Q1016 NOSIG
Conditions at: YSSY (SYDNEY INTL AIRP, AU) observed 0630 UTC 26 March 2019
Temperature: 23.0°C (73°F)
Dewpoint: 9.0°C (48°F) [RH = 41%]
Pressure (altimeter): 30.00 inches Hg (1016.0 mb)
Winds: from the SSE (150 degrees) at 17 MPH (15 knots; 7.7 m/s)
Visibility: 6 or more miles (10+ km)
Ceiling: ceiling and visibility are OK
Clouds: unknown
Weather: no significant weather observed at this time

METAR text: YSSY 260600Z 16015KT CAVOK 23/06 Q1016 NOSIG
Conditions at: YSSY (SYDNEY INTL AIRP, AU) observed 0600 UTC 26 March 2019
Temperature: 23.0°C (73°F)
Dewpoint: 6.0°C (43°F) [RH = 33%]
Pressure (altimeter): 30.00 inches Hg (1016.0 mb)
Winds: from the SSE (160 degrees) at 17 MPH (15 knots; 7.7 m/s)
Visibility: 6 or more miles (10+ km)
Ceiling: ceiling and visibility are OK
Clouds: unknown
Weather: no significant weather observed at this time

METAR text: YSSY 260530Z 16015KT 030V170 CAVOK 23/06 Q1015 NOSIG
Conditions at: YSSY (SYDNEY INTL AIRP, AU) observed 0530 UTC 26 March 2019
Temperature: 23.0°C (73°F)
Dewpoint: 6.0°C (43°F) [RH = 33%]
Pressure (altimeter): 29.97 inches Hg (1015.0 mb)
Winds: from the SSE (160 degrees) at 17 MPH (15 knots; 7.7 m/s)
Visibility: 6 or more miles (10+ km)
Ceiling: ceiling and visibility are OK
Clouds: unknown
Weather: no significant weather observed at this time

METAR text: YSSY 260500Z 11014KT 090V250 CAVOK 25/04 Q1015
Conditions at: YSSY (SYDNEY INTL AIRP, AU) observed 0500 UTC 26 March 2019
Temperature: 25.0°C (77°F)
Dewpoint: 4.0°C (39°F) [RH = 26%]
Pressure (altimeter): 29.97 inches Hg (1015.0 mb)
Winds: from the ESE (110 degrees) at 16 MPH (14 knots; 7.2 m/s)
Visibility: 6 or more miles (10+ km)
Ceiling: ceiling and visibility are OK
Clouds: unknown
Weather: no significant weather observed at this time

METAR text: YSSY 260430Z 23008KT CAVOK 25/03 Q1015 NOSIG
Conditions at: YSSY (SYDNEY INTL AIRP, AU) observed 0430 UTC 26 March 2019
Temperature: 25.0°C (77°F)
Dewpoint: 3.0°C (37°F) [RH = 24%]
Pressure (altimeter): 29.97 inches Hg (1015.0 mb)
Winds: from the SW (230 degrees) at 9 MPH (8 knots; 4.1 m/s)
Visibility: 6 or more miles (10+ km)
Ceiling: ceiling and visibility are OK
Clouds: unknown
Weather: no significant weather observed at this time

METAR text: YSSY 260400Z 25011KT CAVOK 25/05 Q1015 NOSIG
Conditions at: YSSY (SYDNEY INTL AIRP, AU) observed 0400 UTC 26 March 2019
Temperature: 25.0°C (77°F)
Dewpoint: 5.0°C (41°F) [RH = 28%]
Pressure (altimeter): 29.97 inches Hg (1015.0 mb)
Winds: from the WSW (250 degrees) at 13 MPH (11 knots; 5.7 m/s)
Visibility: 6 or more miles (10+ km)
Ceiling: ceiling and visibility are OK
Clouds: unknown
Weather: no significant weather observed at this time

METAR text: YSSY 260330Z 25009KT CAVOK 25/02 Q1015 NOSIG
Conditions at: YSSY (SYDNEY INTL AIRP, AU) observed 0330 UTC 26 March 2019
Temperature: 25.0°C (77°F)
Dewpoint: 2.0°C (36°F) [RH = 22%]
Pressure (altimeter): 29.97 inches Hg (1015.0 mb)
Winds: from the WSW (250 degrees) at 10 MPH (9 knots; 4.6 m/s)
Visibility: 6 or more miles (10+ km)
Ceiling: ceiling and visibility are OK
Clouds: unknown
Weather: no significant weather observed at this time

METAR text: YSSY 260300Z 26016KT CAVOK 23/03 Q1015 FM0300 MOD TURB BLW 5000FT TILL 0330 FM0330 23015KT CAVOK
Conditions at: YSSY (SYDNEY INTL AIRP, AU) observed 0300 UTC 26 March 2019
Temperature: 23.0°C (73°F)
Dewpoint: 3.0°C (37°F) [RH = 27%]
Pressure (altimeter): 29.97 inches Hg (1015.0 mb)
Winds: from the W (260 degrees) at 18 MPH (16 knots; 8.2 m/s)
Visibility: 6 or more miles (10+ km)
Ceiling: ceiling and visibility are OK
Clouds: unknown
Weather: no significant weather observed at this time

METAR text: YSSY 260232Z 26016G26KT CAVOK 24/03 Q1016 FM0232 MOD TURB BLW 5000FT TILL 0330 FM0330 23015KT CAVOK
Conditions at: YSSY (SYDNEY INTL AIRP, AU) observed 0232 UTC 26 March 2019
Temperature: 24.0°C (75°F)
Dewpoint: 3.0°C (37°F) [RH = 25%]
Pressure (altimeter): 30.00 inches Hg (1016.0 mb)
Winds: from the W (260 degrees) at 18 MPH (16 knots; 8.2 m/s)
gusting to 30 MPH (26 knots; 13.4 m/s)
Visibility: 6 or more miles (10+ km)
Ceiling: ceiling and visibility are OK
Clouds: unknown
Weather: no significant weather observed at this time

METAR text: YSSY 260218Z 26017G31KT CAVOK 24/02 Q1016 FM0218 MOD TURB BLW 5000FT TILL 0330
Conditions at: YSSY (SYDNEY INTL AIRP, AU) observed 0218 UTC 26 March 2019
Temperature: 24.0°C (75°F)
Dewpoint: 2.0°C (36°F) [RH = 24%]
Pressure (altimeter): 30.00 inches Hg (1016.0 mb)
Winds: from the W (260 degrees) at 20 MPH (17 knots; 8.7 m/s)
gusting to 36 MPH (31 knots; 15.9 m/s)
Visibility: 6 or more miles (10+ km)
Ceiling: ceiling and visibility are OK
Clouds: unknown
Weather: no significant weather observed at this time

METAR text: YSSY 260200Z 26018KT CAVOK 23/02 Q1016 FM0200 MOD TURB BLW 5000FT TILL 0300
Conditions at: YSSY (SYDNEY INTL AIRP, AU) observed 0200 UTC 26 March 2019
Temperature: 23.0°C (73°F)
Dewpoint: 2.0°C (36°F) [RH = 25%]
Pressure (altimeter): 30.00 inches Hg (1016.0 mb)
Winds: from the W (260 degrees) at 21 MPH (18 knots; 9.3 m/s)
Visibility: 6 or more miles (10+ km)
Ceiling: ceiling and visibility are OK
Clouds: unknown
Weather: no significant weather observed at this time

METAR text: YSSY 260130Z 27017KT CAVOK 23/02 Q1016 FM0130 MOD TURB BLW 5000FT TILL 0300
Conditions at: YSSY (SYDNEY INTL AIRP, AU) observed 0130 UTC 26 March 2019
Temperature: 23.0°C (73°F)
Dewpoint: 2.0°C (36°F) [RH = 25%]
Pressure (altimeter): 30.00 inches Hg (1016.0 mb)
Winds: from the W (270 degrees) at 20 MPH (17 knots; 8.7 m/s)
Visibility: 6 or more miles (10+ km)
Ceiling: ceiling and visibility are OK
Clouds: unknown
Weather: no significant weather observed at this time

METAR text: YSSY 260101Z 27018G34KT CAVOK 23/02 Q1016
Conditions at: YSSY (SYDNEY INTL AIRP, AU) observed 0101 UTC 26 March 2019
Temperature: 23.0°C (73°F)
Dewpoint: 2.0°C (36°F) [RH = 25%]
Pressure (altimeter): 30.00 inches Hg (1016.0 mb)
Winds: from the W (270 degrees) at 21 MPH (18 knots; 9.3 m/s)
gusting to 39 MPH (34 knots; 17.5 m/s)
Visibility: 6 or more miles (10+ km)
Ceiling: ceiling and visibility are OK
Clouds: unknown
Weather: no significant weather observed at this time

METAR text: YSSY 260100Z 27018G28KT CAVOK 23/03 Q1016 FM0100 MOD TURB BLW 5000FT TILL 0300
Conditions at: YSSY (SYDNEY INTL AIRP, AU) observed 0100 UTC 26 March 2019
Temperature: 23.0°C (73°F)
Dewpoint: 3.0°C (37°F) [RH = 27%]
Pressure (altimeter): 30.00 inches Hg (1016.0 mb)
Winds: from the W (270 degrees) at 21 MPH (18 knots; 9.3 m/s)
gusting to 32 MPH (28 knots; 14.4 m/s)
Visibility: 6 or more miles (10+ km)
Ceiling: ceiling and visibility are OK
Clouds: unknown
Weather: no significant weather observed at this time

METAR text: YSSY 260030Z 26017KT CAVOK 22/03 Q1016 FM0030 MOD TURB BLW 5000FT
Conditions at: YSSY (SYDNEY INTL AIRP, AU) observed 0030 UTC 26 March 2019
Temperature: 22.0°C (72°F)
Dewpoint: 3.0°C (37°F) [RH = 29%]
Pressure (altimeter): 30.00 inches Hg (1016.0 mb)
Winds: from the W (260 degrees) at 20 MPH (17 knots; 8.7 m/s)
Visibility: 6 or more miles (10+ km)
Ceiling: ceiling and visibility are OK
Clouds: unknown
Weather: no significant weather observed at this time

METAR text: YSSY 260004Z 26015G26KT CAVOK 22/06 Q1016
Conditions at: YSSY (SYDNEY INTL AIRP, AU) observed 0004 UTC 26 March 2019
Temperature: 22.0°C (72°F)
Dewpoint: 6.0°C (43°F) [RH = 35%]
Pressure (altimeter): 30.00 inches Hg (1016.0 mb)
Winds: from the W (260 degrees) at 17 MPH (15 knots; 7.7 m/s)
gusting to 30 MPH (26 knots; 13.4 m/s)
Visibility: 6 or more miles (10+ km)
Ceiling: ceiling and visibility are OK
Clouds: unknown
Weather: no significant weather observed at this time

METAR text: YSSY 260000Z 26013KT CAVOK 22/06 Q1016 FM0000 MOD TURB BLW 5000FT
Conditions at: YSSY (SYDNEY INTL AIRP, AU) observed 0000 UTC 26 March 2019
Temperature: 22.0°C (72°F)
Dewpoint: 6.0°C (43°F) [RH = 35%]
Pressure (altimeter): 30.00 inches Hg (1016.0 mb)
Winds: from the W (260 degrees) at 15 MPH (13 knots; 6.7 m/s)
Visibility: 6 or more miles (10+ km)
Ceiling: ceiling and visibility are OK
Clouds: unknown
Weather: no significant weather observed at this time

METAR text: YSSY 252330Z 25013KT CAVOK 21/07 Q1015 FM2330 MOD TURB BLW 5000FT
Conditions at: YSSY (SYDNEY INTL AIRP, AU) observed 2330 UTC 25 March 2019
Temperature: 21.0°C (70°F)
Dewpoint: 7.0°C (45°F) [RH = 40%]
Pressure (altimeter): 29.97 inches Hg (1015.0 mb)
Winds: from the WSW (250 degrees) at 15 MPH (13 knots; 6.7 m/s)
Visibility: 6 or more miles (10+ km)
Ceiling: ceiling and visibility are OK
Clouds: unknown
Weather: no significant weather observed at this time

METAR text: YSSY 252300Z 26015KT CAVOK 21/06 Q1015 FM2300 MOD TURB BLW 5000FT
Conditions at: YSSY (SYDNEY INTL AIRP, AU) observed 2300 UTC 25 March 2019
Temperature: 21.0°C (70°F)
Dewpoint: 6.0°C (43°F) [RH = 38%]
Pressure (altimeter): 29.97 inches Hg (1015.0 mb)
Winds: from the W (260 degrees) at 17 MPH (15 knots; 7.7 m/s)
Visibility: 6 or more miles (10+ km)
Ceiling: ceiling and visibility are OK
Clouds: unknown
Weather: no significant weather observed at this time

METAR text: YSSY 252230Z 26015KT CAVOK 20/07 Q1015 FM2230 MOD TURB BLW 5000FT
Conditions at: YSSY (SYDNEY INTL AIRP, AU) observed 2230 UTC 25 March 2019
Temperature: 20.0°C (68°F)
Dewpoint: 7.0°C (45°F) [RH = 43%]
Pressure (altimeter): 29.97 inches Hg (1015.0 mb)
Winds: from the W (260 degrees) at 17 MPH (15 knots; 7.7 m/s)
Visibility: 6 or more miles (10+ km)
Ceiling: ceiling and visibility are OK
Clouds: unknown
Weather: no significant weather observed at this time

METAR text: YSSY 252200Z 26016KT CAVOK 19/07 Q1015 FM2200 MOD TURB BLW 5000FT
Conditions at: YSSY (SYDNEY INTL AIRP, AU) observed 2200 UTC 25 March 2019
Temperature: 19.0°C (66°F)
Dewpoint: 7.0°C (45°F) [RH = 46%]
Pressure (altimeter): 29.97 inches Hg (1015.0 mb)
Winds: from the W (260 degrees) at 18 MPH (16 knots; 8.2 m/s)
Visibility: 6 or more miles (10+ km)
Ceiling: ceiling and visibility are OK
Clouds: unknown
Weather: no significant weather observed at this time

METAR text: YSSY 252130Z 26015KT CAVOK 19/08 Q1015 FM2130 MOD TURB BLW 5000FT
Conditions at: YSSY (SYDNEY INTL AIRP, AU) observed 2130 UTC 25 March 2019
Temperature: 19.0°C (66°F)
Dewpoint: 8.0°C (46°F) [RH = 49%]
Pressure (altimeter): 29.97 inches Hg (1015.0 mb)
Winds: from the W (260 degrees) at 17 MPH (15 knots; 7.7 m/s)
Visibility: 6 or more miles (10+ km)
Ceiling: ceiling and visibility are OK
Clouds: unknown
Weather: no significant weather observed at this time

METAR text: YSSY 252100Z 25017KT CAVOK 18/08 Q1015 FM2100 MOD TURB BLW 5000FT
Conditions at: YSSY (SYDNEY INTL AIRP, AU) observed 2100 UTC 25 March 2019
Temperature: 18.0°C (64°F)
Dewpoint: 8.0°C (46°F) [RH = 52%]
Pressure (altimeter): 29.97 inches Hg (1015.0 mb)
Winds: from the WSW (250 degrees) at 20 MPH (17 knots; 8.7 m/s)
Visibility: 6 or more miles (10+ km)
Ceiling: ceiling and visibility are OK
Clouds: unknown
Weather: no significant weather observed at this time

METAR text: YSSY 252030Z 24016KT CAVOK 18/09 Q1014 FM2030 MOD TURB BLW 5000FT
Conditions at: YSSY (SYDNEY INTL AIRP, AU) observed 2030 UTC 25 March 2019
Temperature: 18.0°C (64°F)
Dewpoint: 9.0°C (48°F) [RH = 56%]
Pressure (altimeter): 29.94 inches Hg (1014.0 mb)
Winds: from the WSW (240 degrees) at 18 MPH (16 knots; 8.2 m/s)
Visibility: 6 or more miles (10+ km)
Ceiling: ceiling and visibility are OK
Clouds: unknown
Weather: no significant weather observed at this time

METAR text: YSSY 252000Z 25015KT CAVOK 18/09 Q1014 FM2000 MOD TURB BLW 5000FT
Conditions at: YSSY (SYDNEY INTL AIRP, AU) observed 2000 UTC 25 March 2019
Temperature: 18.0°C (64°F)
Dewpoint: 9.0°C (48°F) [RH = 56%]
Pressure (altimeter): 29.94 inches Hg (1014.0 mb)
Winds: from the WSW (250 degrees) at 17 MPH (15 knots; 7.7 m/s)
Visibility: 6 or more miles (10+ km)
Ceiling: ceiling and visibility are OK
Clouds: unknown
Weather: no significant weather observed at this time

METAR text: YSSY 251930Z 25014KT CAVOK 18/09 Q1013 FM1930 MOD TURB BLW 5000FT
Conditions at: YSSY (SYDNEY INTL AIRP, AU) observed 1930 UTC 25 March 2019
Temperature: 18.0°C (64°F)
Dewpoint: 9.0°C (48°F) [RH = 56%]
Pressure (altimeter): 29.91 inches Hg (1013.0 mb)
Winds: from the WSW (250 degrees) at 16 MPH (14 knots; 7.2 m/s)
Visibility: 6 or more miles (10+ km)
Ceiling: ceiling and visibility are OK
Clouds: unknown
Weather: no significant weather observed at this time

METAR text: YSSY 251900Z 24016KT CAVOK 18/09 Q1013 FM1900 MOD TURB BLW 5000FT
Conditions at: YSSY (SYDNEY INTL AIRP, AU) observed 1900 UTC 25 March 2019
Temperature: 18.0°C (64°F)
Dewpoint: 9.0°C (48°F) [RH = 56%]
Pressure (altimeter): 29.91 inches Hg (1013.0 mb)
Winds: from the WSW (240 degrees) at 18 MPH (16 knots; 8.2 m/s)
Visibility: 6 or more miles (10+ km)
Ceiling: ceiling and visibility are OK
Clouds: unknown
Weather: no significant weather observed at this time

METAR text: YSSY 251830Z 25011KT CAVOK 19/10 Q1013 FM1830 MOD TURB BLW 5000FT
Conditions at: YSSY (SYDNEY INTL AIRP, AU) observed 1830 UTC 25 March 2019
Temperature: 19.0°C (66°F)
Dewpoint: 10.0°C (50°F) [RH = 56%]
Pressure (altimeter): 29.91 inches Hg (1013.0 mb)
Winds: from the WSW (250 degrees) at 13 MPH (11 knots; 5.7 m/s)
Visibility: 6 or more miles (10+ km)
Ceiling: ceiling and visibility are OK
Clouds: unknown
Weather: no significant weather observed at this time

METAR text: YSSY 251800Z 24013KT CAVOK 19/10 Q1013 FM1800 MOD TURB BLW 5000FT
Conditions at: YSSY (SYDNEY INTL AIRP, AU) observed 1800 UTC 25 March 2019
Temperature: 19.0°C (66°F)
Dewpoint: 10.0°C (50°F) [RH = 56%]
Pressure (altimeter): 29.91 inches Hg (1013.0 mb)
Winds: from the WSW (240 degrees) at 15 MPH (13 knots; 6.7 m/s)
Visibility: 6 or more miles (10+ km)
Ceiling: ceiling and visibility are OK
Clouds: unknown
Weather: no significant weather observed at this time

METAR text: YSSY 251730Z 25013KT CAVOK 20/11 Q1013 FM1730 MOD TURB BLW 5000FT
Conditions at: YSSY (SYDNEY INTL AIRP, AU) observed 1730 UTC 25 March 2019
Temperature: 20.0°C (68°F)
Dewpoint: 11.0°C (52°F) [RH = 56%]
Pressure (altimeter): 29.91 inches Hg (1013.0 mb)
Winds: from the WSW (250 degrees) at 15 MPH (13 knots; 6.7 m/s)
Visibility: 6 or more miles (10+ km)
Ceiling: ceiling and visibility are OK
Clouds: unknown
Weather: no significant weather observed at this time

METAR text: YSSY 251700Z 24012KT CAVOK 20/11 Q1012 FM1700 MOD TURB BLW 5000FT
Conditions at: YSSY (SYDNEY INTL AIRP, AU) observed 1700 UTC 25 March 2019
Temperature: 20.0°C (68°F)
Dewpoint: 11.0°C (52°F) [RH = 56%]
Pressure (altimeter): 29.88 inches Hg (1012.0 mb)
Winds: from the WSW (240 degrees) at 14 MPH (12 knots; 6.2 m/s)
Visibility: 6 or more miles (10+ km)
Ceiling: ceiling and visibility are OK
Clouds: unknown
Weather: no significant weather observed at this time

METAR text: YSSY 251630Z 24011KT CAVOK 20/11 Q1013
Conditions at: YSSY (SYDNEY INTL AIRP, AU) observed 1630 UTC 25 March 2019
Temperature: 20.0°C (68°F)
Dewpoint: 11.0°C (52°F) [RH = 56%]
Pressure (altimeter): 29.91 inches Hg (1013.0 mb)
Winds: from the WSW (240 degrees) at 13 MPH (11 knots; 5.7 m/s)
Visibility: 6 or more miles (10+ km)
Ceiling: ceiling and visibility are OK
Clouds: unknown
Weather: no significant weather observed at this time

METAR text: YSSY 251600Z 25011KT CAVOK 21/10 Q1013 FM1600 MOD TURB BLW 5000FT
Conditions at: YSSY (SYDNEY INTL AIRP, AU) observed 1600 UTC 25 March 2019
Temperature: 21.0°C (70°F)
Dewpoint: 10.0°C (50°F) [RH = 49%]
Pressure (altimeter): 29.91 inches Hg (1013.0 mb)
Winds: from the WSW (250 degrees) at 13 MPH (11 knots; 5.7 m/s)
Visibility: 6 or more miles (10+ km)
Ceiling: ceiling and visibility are OK
Clouds: unknown
Weather: no significant weather observed at this time

METAR text: YSSY 251530Z 23012KT 9999 VCSH NSC 21/11 Q1013
Conditions at: YSSY (SYDNEY INTL AIRP, AU) observed 1530 UTC 25 March 2019
Temperature: 21.0°C (70°F)
Dewpoint: 11.0°C (52°F) [RH = 53%]
Pressure (altimeter): 29.91 inches Hg (1013.0 mb)
Winds: from the SW (230 degrees) at 14 MPH (12 knots; 6.2 m/s)
Visibility: 6 or more miles (10+ km)
Ceiling: at least 12,000 feet AGL
Clouds: sky clear below 12,000 feet AGL
Weather: VCSH  (showers in vicinity)

METAR text: YSSY 251500Z 24013KT 9999 VCSH NSC 21/11 Q1012 FM1500 MOD TURB BLW 5000FT
Conditions at: YSSY (SYDNEY INTL AIRP, AU) observed 1500 UTC 25 March 2019
Temperature: 21.0°C (70°F)
Dewpoint: 11.0°C (52°F) [RH = 53%]
Pressure (altimeter): 29.88 inches Hg (1012.0 mb)
Winds: from the WSW (240 degrees) at 15 MPH (13 knots; 6.7 m/s)
Visibility: 6 or more miles (10+ km)
Ceiling: at least 12,000 feet AGL
Clouds: sky clear below 12,000 feet AGL
Weather: VCSH  (showers in vicinity)

METAR text: YSSY 251430Z 25014KT 9999 VCSH NSC 21/12 Q1012 FM1430 MOD TURB BLW 5000FT
Conditions at: YSSY (SYDNEY INTL AIRP, AU) observed 1430 UTC 25 March 2019
Temperature: 21.0°C (70°F)
Dewpoint: 12.0°C (54°F) [RH = 56%]
Pressure (altimeter): 29.88 inches Hg (1012.0 mb)
Winds: from the WSW (250 degrees) at 16 MPH (14 knots; 7.2 m/s)
Visibility: 6 or more miles (10+ km)
Ceiling: at least 12,000 feet AGL
Clouds: sky clear below 12,000 feet AGL
Weather: VCSH  (showers in vicinity)

METAR text: YSSY 251400Z 26009KT CAVOK 21/15 Q1012 FM1400 MOD TURB BLW 5000FT
Conditions at: YSSY (SYDNEY INTL AIRP, AU) observed 1400 UTC 25 March 2019
Temperature: 21.0°C (70°F)
Dewpoint: 15.0°C (59°F) [RH = 69%]
Pressure (altimeter): 29.88 inches Hg (1012.0 mb)
Winds: from the W (260 degrees) at 10 MPH (9 knots; 4.6 m/s)
Visibility: 6 or more miles (10+ km)
Ceiling: ceiling and visibility are OK
Clouds: unknown
Weather: no significant weather observed at this time

METAR text: YSSY 251330Z 26008KT CAVOK 21/17 Q1012 FM1330 MOD TURB BLW 5000FT
Conditions at: YSSY (SYDNEY INTL AIRP, AU) observed 1330 UTC 25 March 2019
Temperature: 21.0°C (70°F)
Dewpoint: 17.0°C (63°F) [RH = 78%]
Pressure (altimeter): 29.88 inches Hg (1012.0 mb)
Winds: from the W (260 degrees) at 9 MPH (8 knots; 4.1 m/s)
Visibility: 6 or more miles (10+ km)
Ceiling: ceiling and visibility are OK
Clouds: unknown
Weather: no significant weather observed at this time

METAR text: YSSY 251300Z 33005KT CAVOK 21/17 Q1012 FM1300 MOD TURB BLW 5000FT
Conditions at: YSSY (SYDNEY INTL AIRP, AU) observed 1300 UTC 25 March 2019
Temperature: 21.0°C (70°F)
Dewpoint: 17.0°C (63°F) [RH = 78%]
Pressure (altimeter): 29.88 inches Hg (1012.0 mb)
Winds: from the NNW (330 degrees) at 6 MPH (5 knots; 2.6 m/s)
Visibility: 6 or more miles (10+ km)
Ceiling: ceiling and visibility are OK
Clouds: unknown
Weather: no significant weather observed at this time

METAR text: YSSY 251230Z 35007KT CAVOK 21/18 Q1012
Conditions at: YSSY (SYDNEY INTL AIRP, AU) observed 1230 UTC 25 March 2019
Temperature: 21.0°C (70°F)
Dewpoint: 18.0°C (64°F) [RH = 83%]
Pressure (altimeter): 29.88 inches Hg (1012.0 mb)
Winds: from the N (350 degrees) at 8 MPH (7 knots; 3.6 m/s)
Visibility: 6 or more miles (10+ km)
Ceiling: ceiling and visibility are OK
Clouds: unknown
Weather: no significant weather observed at this time

METAR text: YSSY 251200Z 32006KT 290V360 9999 FEW040 SCT075 BKN250 22/18 Q1011 FM1200 MOD TURB BLW 5000FT
Conditions at: YSSY (SYDNEY INTL AIRP, AU) observed 1200 UTC 25 March 2019
Temperature: 22.0°C (72°F)
Dewpoint: 18.0°C (64°F) [RH = 78%]
Pressure (altimeter): 29.85 inches Hg (1011.0 mb)
Winds: from the NW (320 degrees) at 7 MPH (6 knots; 3.1 m/s)
Visibility: 6 or more miles (10+ km)
Ceiling: 25000 feet AGL
Clouds: few clouds at 4000 feet AGL
scattered clouds at 7500 feet AGL
broken clouds at 25000 feet AGL
Weather: no significant weather observed at this time

METAR text: YSSY 251130Z 26015KT 9999 -SHRA FEW015 BKN048 21/16 Q1012 WS ALL RWY FM1130 MOD TURB BLW 5000FT
Conditions at: YSSY (SYDNEY INTL AIRP, AU) observed 1130 UTC 25 March 2019
Temperature: 21.0°C (70°F)
Dewpoint: 16.0°C (61°F) [RH = 73%]
Pressure (altimeter): 29.88 inches Hg (1012.0 mb)
Winds: from the W (260 degrees) at 17 MPH (15 knots; 7.7 m/s)
Visibility: 6 or more miles (10+ km)
Ceiling: 4800 feet AGL
Clouds: few clouds at 1500 feet AGL
broken clouds at 4800 feet AGL
Weather: -SHRA  (light rain showers)

METAR text: YSSY 251100Z 25011KT 9999 FEW035 BKN070 BKN100 23/16 Q1011 WS ALL RWY
Conditions at: YSSY (SYDNEY INTL AIRP, AU) observed 1100 UTC 25 March 2019
Temperature: 23.0°C (73°F)
Dewpoint: 16.0°C (61°F) [RH = 65%]
Pressure (altimeter): 29.85 inches Hg (1011.0 mb)
Winds: from the WSW (250 degrees) at 13 MPH (11 knots; 5.7 m/s)
Visibility: 6 or more miles (10+ km)
Ceiling: 7000 feet AGL
Clouds: few clouds at 3500 feet AGL
broken clouds at 7000 feet AGL
broken clouds at 10000 feet AGL
Weather: no significant weather observed at this time

METAR text: YSSY 251030Z 23014KT 9999 FEW035 BKN065 BKN250 23/17 Q1011 WS ALL RWY FM1030 MOD TURB BLW 5000FT
Conditions at: YSSY (SYDNEY INTL AIRP, AU) observed 1030 UTC 25 March 2019
Temperature: 23.0°C (73°F)
Dewpoint: 17.0°C (63°F) [RH = 69%]
Pressure (altimeter): 29.85 inches Hg (1011.0 mb)
Winds: from the SW (230 degrees) at 16 MPH (14 knots; 7.2 m/s)
Visibility: 6 or more miles (10+ km)
Ceiling: 6500 feet AGL
Clouds: few clouds at 3500 feet AGL
broken clouds at 6500 feet AGL
broken clouds at 25000 feet AGL
Weather: no significant weather observed at this time

METAR text: YSSY 251012Z 22014KT 9999 FEW039 BKN058 BKN250 24/17 Q1011 WS ALL RWY FM1012 MOD TURB BLW 5000FT
Conditions at: YSSY (SYDNEY INTL AIRP, AU) observed 1012 UTC 25 March 2019
Temperature: 24.0°C (75°F)
Dewpoint: 17.0°C (63°F) [RH = 65%]
Pressure (altimeter): 29.85 inches Hg (1011.0 mb)
Winds: from the SW (220 degrees) at 16 MPH (14 knots; 7.2 m/s)
Visibility: 6 or more miles (10+ km)
Ceiling: 5800 feet AGL
Clouds: few clouds at 3900 feet AGL
broken clouds at 5800 feet AGL
broken clouds at 25000 feet AGL
Weather: no significant weather observed at this time

METAR text: YSSY 251000Z 21013KT 210V290 9999 FEW039 BKN058 BKN250 24/19 Q1010 FM1000 MOD TURB BLW 5000FT
Conditions at: YSSY (SYDNEY INTL AIRP, AU) observed 1000 UTC 25 March 2019
Temperature: 24.0°C (75°F)
Dewpoint: 19.0°C (66°F) [RH = 74%]
Pressure (altimeter): 29.82 inches Hg (1010.0 mb)
Winds: from the SSW (210 degrees) at 15 MPH (13 knots; 6.7 m/s)
Visibility: 6 or more miles (10+ km)
Ceiling: 5800 feet AGL
Clouds: few clouds at 3900 feet AGL
broken clouds at 5800 feet AGL
broken clouds at 25000 feet AGL
Weather: no significant weather observed at this time

METAR text: YSSY 250930Z 35009KT CAVOK 25/18 Q1009
Conditions at: YSSY (SYDNEY INTL AIRP, AU) observed 0930 UTC 25 March 2019
Temperature: 25.0°C (77°F)
Dewpoint: 18.0°C (64°F) [RH = 65%]
Pressure (altimeter): 29.79 inches Hg (1009.0 mb)
Winds: from the N (350 degrees) at 10 MPH (9 knots; 4.6 m/s)
Visibility: 6 or more miles (10+ km)
Ceiling: ceiling and visibility are OK
Clouds: unknown
Weather: no significant weather observed at this time

METAR text: YSSY 250900Z 36007KT CAVOK 26/18 Q1009 FM1100 23013KT 9999 SCT040 FM0900 MOD TURB BLW 5000FT
Conditions at: YSSY (SYDNEY INTL AIRP, AU) observed 0900 UTC 25 March 2019
Temperature: 26.0°C (79°F)
Dewpoint: 18.0°C (64°F) [RH = 61%]
Pressure (altimeter): 29.79 inches Hg (1009.0 mb)
Winds: from the N (360 degrees) at 8 MPH (7 knots; 3.6 m/s)
Visibility: 6 or more miles (10+ km)
Ceiling: ceiling and visibility are OK
Clouds: unknown
Weather: no significant weather observed at this time

METAR text: YSSY 250830Z 36011KT CAVOK 26/18 Q1008 FM0830 MOD TURB BLW 5000FT
Conditions at: YSSY (SYDNEY INTL AIRP, AU) observed 0830 UTC 25 March 2019
Temperature: 26.0°C (79°F)
Dewpoint: 18.0°C (64°F) [RH = 61%]
Pressure (altimeter): 29.76 inches Hg (1008.0 mb)
Winds: from the N (360 degrees) at 13 MPH (11 knots; 5.7 m/s)
Visibility: 6 or more miles (10+ km)
Ceiling: ceiling and visibility are OK
Clouds: unknown
Weather: no significant weather observed at this time

METAR text: YSSY 250800Z 34008KT CAVOK 27/18 Q1008 FM0800 MOD TURB BLW 5000FT
Conditions at: YSSY (SYDNEY INTL AIRP, AU) observed 0800 UTC 25 March 2019
Temperature: 27.0°C (81°F)
Dewpoint: 18.0°C (64°F) [RH = 58%]
Pressure (altimeter): 29.76 inches Hg (1008.0 mb)
Winds: from the NNW (340 degrees) at 9 MPH (8 knots; 4.1 m/s)
Visibility: 6 or more miles (10+ km)
Ceiling: ceiling and visibility are OK
Clouds: unknown
Weather: no significant weather observed at this time

METAR text: YSSY 250730Z 34012KT CAVOK 27/18 Q1007 FM0730 MOD TURB BLW 5000FT
Conditions at: YSSY (SYDNEY INTL AIRP, AU) observed 0730 UTC 25 March 2019
Temperature: 27.0°C (81°F)
Dewpoint: 18.0°C (64°F) [RH = 58%]
Pressure (altimeter): 29.73 inches Hg (1007.0 mb)
Winds: from the NNW (340 degrees) at 14 MPH (12 knots; 6.2 m/s)
Visibility: 6 or more miles (10+ km)
Ceiling: ceiling and visibility are OK
Clouds: unknown
Weather: no significant weather observed at this time

METAR text: YSSY 250700Z 34010KT CAVOK 27/18 Q1007 FM0700 MOD TURB BLW 5000FT
Conditions at: YSSY (SYDNEY INTL AIRP, AU) observed 0700 UTC 25 March 2019
Temperature: 27.0°C (81°F)
Dewpoint: 18.0°C (64°F) [RH = 58%]
Pressure (altimeter): 29.73 inches Hg (1007.0 mb)
Winds: from the NNW (340 degrees) at 12 MPH (10 knots; 5.1 m/s)
Visibility: 6 or more miles (10+ km)
Ceiling: ceiling and visibility are OK
Clouds: unknown
Weather: no significant weather observed at this time

METAR text: YSSY 250630Z 33011KT CAVOK 27/18 Q1007 FM0630 MOD TURB BLW 5000FT
Conditions at: YSSY (SYDNEY INTL AIRP, AU) observed 0630 UTC 25 March 2019
Temperature: 27.0°C (81°F)
Dewpoint: 18.0°C (64°F) [RH = 58%]
Pressure (altimeter): 29.73 inches Hg (1007.0 mb)
Winds: from the NNW (330 degrees) at 13 MPH (11 knots; 5.7 m/s)
Visibility: 6 or more miles (10+ km)
Ceiling: ceiling and visibility are OK
Clouds: unknown
Weather: no significant weather observed at this time

METAR text: YSSY 250600Z 33013KT CAVOK 27/18 Q1006 FM0600 MOD TURB BLW 5000FT
Conditions at: YSSY (SYDNEY INTL AIRP, AU) observed 0600 UTC 25 March 2019
Temperature: 27.0°C (81°F)
Dewpoint: 18.0°C (64°F) [RH = 58%]
Pressure (altimeter): 29.70 inches Hg (1006.0 mb)
Winds: from the NNW (330 degrees) at 15 MPH (13 knots; 6.7 m/s)
Visibility: 6 or more miles (10+ km)
Ceiling: ceiling and visibility are OK
Clouds: unknown
Weather: no significant weather observed at this time

METAR text: YSSY 250530Z 35016KT CAVOK 27/19 Q1006 FM0530 MOD TURB BLW 5000FT
Conditions at: YSSY (SYDNEY INTL AIRP, AU) observed 0530 UTC 25 March 2019
Temperature: 27.0°C (81°F)
Dewpoint: 19.0°C (66°F) [RH = 62%]
Pressure (altimeter): 29.70 inches Hg (1006.0 mb)
Winds: from the N (350 degrees) at 18 MPH (16 knots; 8.2 m/s)
Visibility: 6 or more miles (10+ km)
Ceiling: ceiling and visibility are OK
Clouds: unknown
Weather: no significant weather observed at this time

METAR text: YSSY 250500Z 35015KT CAVOK 27/18 Q1007 FM0500 MOD TURB BLW 5000FT
Conditions at: YSSY (SYDNEY INTL AIRP, AU) observed 0500 UTC 25 March 2019
Temperature: 27.0°C (81°F)
Dewpoint: 18.0°C (64°F) [RH = 58%]
Pressure (altimeter): 29.73 inches Hg (1007.0 mb)
Winds: from the N (350 degrees) at 17 MPH (15 knots; 7.7 m/s)
Visibility: 6 or more miles (10+ km)
Ceiling: ceiling and visibility are OK
Clouds: unknown
Weather: no significant weather observed at this time

METAR text: YSSY 250430Z 35015KT CAVOK 27/18 Q1007 FM0430 MOD TURB BLW 5000FT
Conditions at: YSSY (SYDNEY INTL AIRP, AU) observed 0430 UTC 25 March 2019
Temperature: 27.0°C (81°F)
Dewpoint: 18.0°C (64°F) [RH = 58%]
Pressure (altimeter): 29.73 inches Hg (1007.0 mb)
Winds: from the N (350 degrees) at 17 MPH (15 knots; 7.7 m/s)
Visibility: 6 or more miles (10+ km)
Ceiling: ceiling and visibility are OK
Clouds: unknown
Weather: no significant weather observed at this time

METAR text: YSSY 250400Z 33013KT CAVOK 27/18 Q1007 FM0400 MOD TURB BLW 5000FT
Conditions at: YSSY (SYDNEY INTL AIRP, AU) observed 0400 UTC 25 March 2019
Temperature: 27.0°C (81°F)
Dewpoint: 18.0°C (64°F) [RH = 58%]
Pressure (altimeter): 29.73 inches Hg (1007.0 mb)
Winds: from the NNW (330 degrees) at 15 MPH (13 knots; 6.7 m/s)
Visibility: 6 or more miles (10+ km)
Ceiling: ceiling and visibility are OK
Clouds: unknown
Weather: no significant weather observed at this time

METAR text: YSSY 250330Z 33014KT CAVOK 27/18 Q1006 FM0330 MOD TURB BLW 5000FT
Conditions at: YSSY (SYDNEY INTL AIRP, AU) observed 0330 UTC 25 March 2019
Temperature: 27.0°C (81°F)
Dewpoint: 18.0°C (64°F) [RH = 58%]
Pressure (altimeter): 29.70 inches Hg (1006.0 mb)
Winds: from the NNW (330 degrees) at 16 MPH (14 knots; 7.2 m/s)
Visibility: 6 or more miles (10+ km)
Ceiling: ceiling and visibility are OK
Clouds: unknown
Weather: no significant weather observed at this time

METAR text: YSSY 250300Z 33015KT CAVOK 26/18 Q1007 FM0300 MOD TURB BLW 5000FT
Conditions at: YSSY (SYDNEY INTL AIRP, AU) observed 0300 UTC 25 March 2019
Temperature: 26.0°C (79°F)
Dewpoint: 18.0°C (64°F) [RH = 61%]
Pressure (altimeter): 29.73 inches Hg (1007.0 mb)
Winds: from the NNW (330 degrees) at 17 MPH (15 knots; 7.7 m/s)
Visibility: 6 or more miles (10+ km)
Ceiling: ceiling and visibility are OK
Clouds: unknown
Weather: no significant weather observed at this time

METAR text: YSSY 250230Z 34013KT CAVOK 25/19 Q1007 FM0230 MOD TURB BLW 5000FT
Conditions at: YSSY (SYDNEY INTL AIRP, AU) observed 0230 UTC 25 March 2019
Temperature: 25.0°C (77°F)
Dewpoint: 19.0°C (66°F) [RH = 69%]
Pressure (altimeter): 29.73 inches Hg (1007.0 mb)
Winds: from the NNW (340 degrees) at 15 MPH (13 knots; 6.7 m/s)
Visibility: 6 or more miles (10+ km)
Ceiling: ceiling and visibility are OK
Clouds: unknown
Weather: no significant weather observed at this time

METAR text: YSSY 250200Z 33013KT CAVOK 24/18 Q1008 FM0200 MOD TURB BLW 5000FT
Conditions at: YSSY (SYDNEY INTL AIRP, AU) observed 0200 UTC 25 March 2019
Temperature: 24.0°C (75°F)
Dewpoint: 18.0°C (64°F) [RH = 69%]
Pressure (altimeter): 29.76 inches Hg (1008.0 mb)
Winds: from the NNW (330 degrees) at 15 MPH (13 knots; 6.7 m/s)
Visibility: 6 or more miles (10+ km)
Ceiling: ceiling and visibility are OK
Clouds: unknown
Weather: no significant weather observed at this time

METAR text: YSSY 250130Z 31013KT CAVOK 23/18 Q1008 FM0130 MOD TURB BLW 5000FT
Conditions at: YSSY (SYDNEY INTL AIRP, AU) observed 0130 UTC 25 March 2019
Temperature: 23.0°C (73°F)
Dewpoint: 18.0°C (64°F) [RH = 73%]
Pressure (altimeter): 29.76 inches Hg (1008.0 mb)
Winds: from the NW (310 degrees) at 15 MPH (13 knots; 6.7 m/s)
Visibility: 6 or more miles (10+ km)
Ceiling: ceiling and visibility are OK
Clouds: unknown
Weather: no significant weather observed at this time

METAR text: YSSY 250100Z 32013KT CAVOK 23/18 Q1009 FM0100 MOD TURB BLW 5000FT
Conditions at: YSSY (SYDNEY INTL AIRP, AU) observed 0100 UTC 25 March 2019
Temperature: 23.0°C (73°F)
Dewpoint: 18.0°C (64°F) [RH = 73%]
Pressure (altimeter): 29.79 inches Hg (1009.0 mb)
Winds: from the NW (320 degrees) at 15 MPH (13 knots; 6.7 m/s)
Visibility: 6 or more miles (10+ km)
Ceiling: ceiling and visibility are OK
Clouds: unknown
Weather: no significant weather observed at this time

METAR text: YSSY 250030Z 33015KT 9999 VCSH NSC 23/18 Q1009 FM0030 MOD TURB BLW 5000FT
Conditions at: YSSY (SYDNEY INTL AIRP, AU) observed 0030 UTC 25 March 2019
Temperature: 23.0°C (73°F)
Dewpoint: 18.0°C (64°F) [RH = 73%]
Pressure (altimeter): 29.79 inches Hg (1009.0 mb)
Winds: from the NNW (330 degrees) at 17 MPH (15 knots; 7.7 m/s)
Visibility: 6 or more miles (10+ km)
Ceiling: at least 12,000 feet AGL
Clouds: sky clear below 12,000 feet AGL
Weather: VCSH  (showers in vicinity)

Forecast for: YSSY (SYDNEY INTL AIRP, AU)
Text: TAF YSSY 261111Z 2612/2718 13010KT CAVOK
Forecast period: 1200 to 1600 UTC 26 March 2019
Forecast type: FROM: standard forecast or significant change
Winds: from the SE (130 degrees) at 12 MPH (10 knots; 5.1 m/s)
Visibility: 6 or more miles 10+ km)
Ceiling: unknown
Clouds: missing
Weather: NSW  (no significant weather)
Text: FM261600 25005KT 9999 -SHRA SCT035
Forecast period: 1600 UTC 26 March 2019 to 0000 UTC 27 March 2019
Forecast type: FROM: standard forecast or significant change
Winds: from the WSW (250 degrees) at 6 MPH (5 knots; 2.6 m/s)
Visibility: 6 or more miles 10+ km)
Ceiling: at least 12,000 feet AGL
Clouds: scattered clouds at 3500 feet AGL
Weather: -SHRA  (light rain showers)
Text: FM270000 12012KT 9999 SCT040
Forecast period: 0000 to 1400 UTC 27 March 2019
Forecast type: FROM: standard forecast or significant change
Winds: from the ESE (120 degrees) at 14 MPH (12 knots; 6.2 m/s)
Visibility: 6 or more miles 10+ km)
Ceiling: at least 12,000 feet AGL
Clouds: scattered clouds at 4000 feet AGL
Weather: no significant weather forecast for this period
Text: FM271400 28008KT 9999 SCT035
Forecast period: 1400 to 1800 UTC 27 March 2019
Forecast type: FROM: standard forecast or significant change
Winds: from the W (280 degrees) at 9 MPH (8 knots; 4.1 m/s)
Visibility: 6 or more miles 10+ km)
Ceiling: at least 12,000 feet AGL
Clouds: scattered clouds at 3500 feet AGL
Weather: no significant weather forecast for this period